Time;durP1;ratioP1;P1;durP2;ratioP2;P2;SDS_P1;SDS_P2;PMS_P1;PMS_P2;Temp;Humidity;BMP_temperature;BMP_pressure;BME280_temperature;BME280_humidity;BME280_pressure;Samples;Min_cycle;Max_cycle;Signal;HPM_P1;HPM_P2
2023/09/26 00:00:08;;;;;;;3.17;2.08;;;19.10;69.60;;;;;;4995200;28;20040;-77
2023/09/26 00:02:35;;;;;;;2.78;1.92;;;19.10;69.70;;;;;;4998844;28;20041;-77
2023/09/26 00:05:03;;;;;;;3.17;2.08;;;19.10;69.60;;;;;;5015510;28;20046;-77
2023/09/26 00:07:29;;;;;;;2.72;2.05;;;19.10;69.70;;;;;;4998171;28;20030;-77
2023/09/26 00:09:56;;;;;;;3.35;2.15;;;19.10;69.70;;;;;;4997631;28;20105;-77
2023/09/26 00:12:21;;;;;;;2.58;2.08;;;19.10;69.70;;;;;;4998007;28;20088;-78
2023/09/26 00:14:47;;;;;;;3.53;2.10;;;19.10;69.70;;;;;;4997740;28;20034;-77
2023/09/26 00:17:15;;;;;;;2.83;1.90;;;19.10;69.70;;;;;;5015112;28;20442;-77
2023/09/26 00:19:40;;;;;;;3.20;2.20;;;19.10;69.70;;;;;;4997466;28;20030;-77
2023/09/26 00:22:06;;;;;;;3.50;2.20;;;19.10;69.70;;;;;;4981475;28;20041;-78
2023/09/26 00:24:32;;;;;;;3.47;2.00;;;19.00;69.70;;;;;;5013354;28;20052;-77
2023/09/26 00:26:58;;;;;;;3.15;2.05;;;19.00;69.70;;;;;;5013555;28;20037;-77
2023/09/26 00:29:24;;;;;;;3.22;2.13;;;19.10;69.80;;;;;;5013837;28;20057;-78
2023/09/26 00:31:51;;;;;;;3.13;2.10;;;19.00;69.70;;;;;;5013714;28;20444;-78
2023/09/26 00:34:17;;;;;;;3.47;2.30;;;19.00;69.70;;;;;;4981382;28;20038;-78
2023/09/26 00:36:44;;;;;;;2.80;2.22;;;19.00;69.70;;;;;;5013469;28;20033;-77
2023/09/26 00:39:09;;;;;;;3.33;2.17;;;19.00;69.80;;;;;;4997747;28;20072;-78
2023/09/26 00:41:35;;;;;;;2.75;2.10;;;19.00;69.80;;;;;;5013586;28;20398;-78
2023/09/26 00:44:02;;;;;;;3.47;2.30;;;19.00;69.70;;;;;;4997527;28;20394;-78
2023/09/26 00:46:28;;;;;;;3.08;2.20;;;18.90;69.70;;;;;;5013798;28;20037;-78
2023/09/26 00:48:55;;;;;;;3.35;2.35;;;19.00;69.80;;;;;;5013409;28;20457;-77
2023/09/26 00:51:21;;;;;;;4.10;2.28;;;19.00;69.80;;;;;;4965068;28;20033;-78
2023/09/26 00:53:47;;;;;;;2.90;2.03;;;18.90;69.80;;;;;;4997518;28;20084;-78
2023/09/26 00:56:13;;;;;;;2.95;2.20;;;18.90;69.80;;;;;;4996869;28;20030;-77
2023/09/26 00:58:41;;;;;;;3.40;2.38;;;18.90;69.90;;;;;;5014772;28;20037;-77
2023/09/26 01:01:07;;;;;;;3.00;2.20;;;18.90;69.90;;;;;;5012995;28;20034;-77
2023/09/26 01:03:34;;;;;;;2.72;2.35;;;18.90;69.90;;;;;;5014141;28;20391;-77
2023/09/26 01:06:01;;;;;;;4.05;2.63;;;18.90;69.90;;;;;;4996352;28;20029;-78
2023/09/26 01:08:28;;;;;;;3.65;2.38;;;18.90;69.90;;;;;;5013439;28;20045;-77
2023/09/26 01:10:54;;;;;;;3.45;2.60;;;18.80;69.90;;;;;;5013882;28;20061;-77
2023/09/26 01:13:20;;;;;;;3.20;2.42;;;18.80;69.80;;;;;;4980473;28;20104;-77
2023/09/26 01:15:45;;;;;;;3.75;2.50;;;18.80;69.90;;;;;;5012868;28;20034;-77
2023/09/26 01:18:15;;;;;;;3.80;2.90;;;18.80;69.90;;;;;;5014586;28;20073;-77
2023/09/26 01:20:45;;;;;;;2.97;2.13;;;18.80;69.90;;;;;;4996610;28;20091;-77
2023/09/26 01:23:13;;;;;;;3.33;2.30;;;18.80;69.90;;;;;;4980301;28;20037;-77
2023/09/26 01:25:40;;;;;;;4.07;2.80;;;18.70;69.90;;;;;;5012935;28;20084;-78
2023/09/26 01:28:08;;;;;;;2.60;2.05;;;18.70;70.60;;;;;;5013220;28;20037;-77
2023/09/26 01:30:35;;;;;;;3.67;2.60;;;18.70;70.00;;;;;;4980264;28;20040;-77
2023/09/26 01:33:15;;;;;;;4.05;2.60;;;18.70;70.70;;;;;;4980361;28;20026;-78
2023/09/26 01:35:42;;;;;;;3.30;2.20;;;18.70;70.00;;;;;;5013451;28;20498;-78
2023/09/26 01:38:08;;;;;;;3.55;2.55;;;18.60;70.00;;;;;;5013250;28;20111;-77
2023/09/26 01:40:34;;;;;;;3.67;2.50;;;18.60;70.00;;;;;;4980202;28;20475;-78
2023/09/26 01:43:00;;;;;;;3.35;2.65;;;18.60;70.00;;;;;;4980024;28;20033;-77
2023/09/26 01:45:26;;;;;;;2.65;2.20;;;18.60;70.00;;;;;;5013375;28;20386;-78
2023/09/26 01:47:51;;;;;;;3.17;2.45;;;18.60;70.00;;;;;;4979988;28;20502;-78
2023/09/26 01:50:19;;;;;;;3.40;2.40;;;18.60;70.00;;;;;;4995988;28;20112;-78
2023/09/26 01:52:45;;;;;;;3.35;2.53;;;18.60;70.10;;;;;;4979864;28;20045;-77
2023/09/26 01:55:18;;;;;;;3.72;2.40;;;18.50;70.00;;;;;;5013504;28;20037;-78
2023/09/26 01:57:44;;;;;;;3.30;2.45;;;18.50;70.00;;;;;;5012255;28;20093;-78
2023/09/26 02:00:10;;;;;;;3.90;2.50;;;18.50;70.00;;;;;;5013241;28;20034;-77
2023/09/26 02:02:42;;;;;;;4.07;2.50;;;18.50;70.10;;;;;;4979947;28;20049;-77
2023/09/26 02:05:15;;;;;;;3.55;2.45;;;18.50;70.10;;;;;;4996638;28;20463;-77
2023/09/26 02:07:40;;;;;;;3.63;2.55;;;18.50;70.10;;;;;;4995970;28;20038;-77
2023/09/26 02:10:07;;;;;;;3.15;2.50;;;18.40;70.10;;;;;;5012267;28;20038;-78
2023/09/26 02:12:36;;;;;;;3.83;2.78;;;18.40;70.10;;;;;;4995822;28;20034;-77
2023/09/26 02:15:08;;;;;;;2.63;2.13;;;18.40;70.20;;;;;;4995372;28;20406;-78
2023/09/26 02:17:35;;;;;;;3.53;2.63;;;18.40;70.10;;;;;;4980259;28;20046;-78
2023/09/26 02:20:12;;;;;;;3.35;2.53;;;18.40;70.20;;;;;;4997770;28;20566;-77
2023/09/26 02:22:51;;;;;;;3.95;2.58;;;18.40;70.20;;;;;;4999338;28;20038;-77
2023/09/26 02:25:19;;;;;;;3.05;2.33;;;18.40;70.20;;;;;;5016225;28;20092;-77
2023/09/26 02:27:45;;;;;;;4.45;2.88;;;18.30;70.10;;;;;;4983458;28;20486;-78
2023/09/26 02:30:14;;;;;;;3.00;2.22;;;18.40;70.20;;;;;;4999545;28;20087;-77
2023/09/26 02:32:40;;;;;;;3.17;2.67;;;18.30;70.20;;;;;;5000055;28;20052;-78
2023/09/26 02:35:12;;;;;;;3.38;2.55;;;18.30;70.20;;;;;;4983620;28;20128;-77
2023/09/26 02:37:38;;;;;;;3.40;2.58;;;18.30;70.20;;;;;;5017051;28;20061;-78
2023/09/26 02:40:09;;;;;;;3.03;2.35;;;18.30;70.20;;;;;;4999570;28;20034;-78
2023/09/26 02:42:40;;;;;;;2.72;2.30;;;18.30;70.30;;;;;;5016093;28;20038;-77
2023/09/26 02:45:06;;;;;;;3.15;2.47;;;18.30;70.30;;;;;;5000033;28;20029;-77
2023/09/26 02:47:33;;;;;;;3.25;2.47;;;18.20;70.20;;;;;;5017537;28;20049;-77
2023/09/26 02:50:00;;;;;;;3.25;2.30;;;18.20;70.20;;;;;;5016397;28;20124;-78
2023/09/26 02:52:26;;;;;;;3.20;2.42;;;18.20;70.30;;;;;;5015771;28;20096;-77
2023/09/26 02:54:53;;;;;;;3.03;2.35;;;18.20;70.30;;;;;;5015642;28;20124;-77
2023/09/26 02:57:19;;;;;;;3.55;2.75;;;18.20;70.30;;;;;;5017115;28;20084;-78
2023/09/26 02:59:45;;;;;;;3.92;2.72;;;18.20;70.30;;;;;;5015351;28;20037;-77
2023/09/26 03:02:12;;;;;;;3.10;2.50;;;18.10;70.30;;;;;;5017242;28;20052;-77
2023/09/26 03:04:37;;;;;;;3.97;2.75;;;18.10;70.30;;;;;;4999510;28;20050;-77
2023/09/26 03:07:03;;;;;;;3.58;2.78;;;18.10;70.30;;;;;;5015343;28;20057;-78
2023/09/26 03:09:31;;;;;;;3.50;2.50;;;18.10;70.40;;;;;;4999064;28;20034;-78
2023/09/26 03:11:57;;;;;;;3.33;2.50;;;18.10;70.40;;;;;;4999278;28;20030;-78
2023/09/26 03:14:23;;;;;;;2.83;2.30;;;18.10;70.40;;;;;;5016481;28;20029;-78
2023/09/26 03:16:49;;;;;;;3.60;2.72;;;18.10;70.40;;;;;;5016461;28;20458;-78
2023/09/26 03:19:17;;;;;;;3.83;2.80;;;18.00;70.40;;;;;;5016966;28;20058;-77
2023/09/26 03:21:43;;;;;;;3.65;2.75;;;18.00;70.50;;;;;;4983372;28;20037;-77
2023/09/26 03:24:09;;;;;;;3.53;2.60;;;18.00;70.50;;;;;;5015111;28;20042;-77
2023/09/26 03:26:35;;;;;;;3.50;2.35;;;18.00;70.60;;;;;;5015110;28;20100;-77
2023/09/26 03:29:01;;;;;;;3.50;2.25;;;18.00;70.60;;;;;;5014949;28;20486;-78
2023/09/26 03:31:28;;;;;;;3.85;2.67;;;18.00;70.60;;;;;;4998038;28;20112;-78
2023/09/26 03:33:54;;;;;;;3.13;2.33;;;17.90;70.50;;;;;;4982221;28;20034;-78
2023/09/26 03:36:20;;;;;;;3.40;2.40;;;17.90;70.60;;;;;;4982705;28;20037;-76
2023/09/26 03:38:45;;;;;;;2.95;2.55;;;17.90;70.60;;;;;;5015038;28;20042;-78
2023/09/26 03:41:11;;;;;;;2.63;2.25;;;17.90;70.60;;;;;;5016520;28;20455;-77
2023/09/26 03:43:37;;;;;;;4.20;2.45;;;17.90;70.70;;;;;;4998759;28;20367;-77
2023/09/26 03:46:05;;;;;;;3.65;2.67;;;17.90;70.70;;;;;;5016595;28;20040;-76
2023/09/26 03:48:32;;;;;;;3.05;2.25;;;17.80;70.70;;;;;;4998585;28;20411;-77
2023/09/26 03:51:12;;;;;;;3.60;2.70;;;17.80;70.70;;;;;;4998209;28;20030;-78
2023/09/26 03:53:38;;;;;;;3.10;2.40;;;17.80;70.70;;;;;;4998198;28;20050;-77
2023/09/26 03:56:04;;;;;;;3.28;2.45;;;17.80;70.70;;;;;;5015462;28;20037;-76
2023/09/26 03:58:31;;;;;;;3.75;2.58;;;17.80;70.70;;;;;;4982086;28;20117;-77
2023/09/26 04:01:10;;;;;;;3.38;2.47;;;17.80;70.80;;;;;;4998435;28;20065;-77
2023/09/26 04:03:37;;;;;;;3.75;2.60;;;17.80;70.80;;;;;;5015588;28;20124;-79
2023/09/26 04:06:03;;;;;;;2.33;2.13;;;17.70;70.70;;;;;;5015290;28;20033;-77
2023/09/26 04:08:29;;;;;;;3.72;2.80;;;17.70;70.70;;;;;;4997807;28;20036;-77
2023/09/26 04:10:54;;;;;;;2.88;2.40;;;17.70;70.80;;;;;;5015714;28;20026;-78
2023/09/26 04:13:20;;;;;;;3.03;2.60;;;17.70;70.80;;;;;;4998018;28;20041;-78
2023/09/26 04:15:46;;;;;;;3.25;2.63;;;17.70;70.80;;;;;;4997700;28;20041;-78
2023/09/26 04:18:12;;;;;;;3.47;2.60;;;17.70;70.90;;;;;;5016101;28;20041;-77
2023/09/26 04:20:39;;;;;;;3.75;2.50;;;17.60;70.80;;;;;;4998167;28;20117;-78
2023/09/26 04:23:05;;;;;;;2.90;2.35;;;17.60;70.80;;;;;;5015155;28;20486;-78
2023/09/26 04:25:33;;;;;;;3.42;2.38;;;17.60;70.80;;;;;;5013814;28;20025;-77
2023/09/26 04:27:59;;;;;;;3.35;2.67;;;17.60;70.80;;;;;;5015521;28;20034;-77
2023/09/26 04:30:25;;;;;;;3.67;2.65;;;17.60;70.90;;;;;;5015194;28;20066;-77
2023/09/26 04:32:51;;;;;;;3.25;2.33;;;17.60;70.90;;;;;;4981542;28;20039;-78
2023/09/26 04:35:16;;;;;;;3.67;2.75;;;17.60;71.00;;;;;;4982330;28;20572;-78
2023/09/26 04:37:42;;;;;;;2.88;2.38;;;17.50;70.90;;;;;;4998489;28;20026;-83
2023/09/26 04:40:10;;;;;;;3.35;2.70;;;17.50;70.90;;;;;;4997761;28;20171;-78
2023/09/26 04:42:40;;;;;;;3.63;2.40;;;17.50;70.90;;;;;;4997278;28;20026;-77
2023/09/26 04:45:07;;;;;;;3.17;2.45;;;17.50;70.90;;;;;;5014894;28;20034;-80
2023/09/26 04:47:33;;;;;;;4.13;2.90;;;17.50;71.00;;;;;;4996876;28;20040;-77
2023/09/26 04:49:58;;;;;;;3.78;2.60;;;17.40;70.90;;;;;;5014885;28;20030;-77
2023/09/26 04:52:24;;;;;;;3.30;2.58;;;17.40;70.90;;;;;;4997523;28;20433;-80
2023/09/26 04:54:53;;;;;;;3.55;2.55;;;17.40;71.00;;;;;;4980669;28;20070;-78
2023/09/26 04:57:19;;;;;;;3.45;2.60;;;17.40;71.00;;;;;;4996946;28;20057;-77
2023/09/26 04:59:44;;;;;;;3.92;2.60;;;17.40;71.00;;;;;;5014436;28;20068;-77
2023/09/26 05:02:10;;;;;;;2.95;2.47;;;17.40;71.10;;;;;;5014040;28;20539;-78
2023/09/26 05:04:36;;;;;;;3.65;2.80;;;17.40;71.00;;;;;;5012744;28;20056;-78
2023/09/26 05:07:02;;;;;;;3.50;2.67;;;17.40;71.10;;;;;;5012871;28;20048;-78
2023/09/26 05:09:28;;;;;;;2.92;2.40;;;17.30;71.10;;;;;;5013033;28;20116;-77
2023/09/26 05:11:53;;;;;;;3.63;2.40;;;17.30;71.10;;;;;;4980473;28;20053;-78
2023/09/26 05:14:19;;;;;;;3.17;2.42;;;17.30;71.10;;;;;;4996342;28;20470;-77
2023/09/26 05:16:45;;;;;;;3.45;2.60;;;17.30;71.10;;;;;;5013106;28;20129;-80
2023/09/26 05:19:10;;;;;;;3.80;2.58;;;17.30;71.20;;;;;;4996344;28;20042;-77
2023/09/26 05:21:37;;;;;;;3.28;2.65;;;17.30;71.20;;;;;;5014645;28;20033;-78
2023/09/26 05:24:04;;;;;;;3.55;2.60;;;17.30;71.20;;;;;;5013779;28;20065;-76
2023/09/26 05:26:31;;;;;;;3.53;2.65;;;17.30;71.20;;;;;;4980250;28;20042;-78
2023/09/26 05:28:57;;;;;;;4.18;2.53;;;17.20;71.20;;;;;;5014252;28;20037;-78
2023/09/26 05:31:22;;;;;;;3.35;2.30;;;17.20;71.20;;;;;;5013615;28;20091;-78
2023/09/26 05:33:48;;;;;;;3.10;2.60;;;17.20;71.30;;;;;;5013391;28;20183;-78
2023/09/26 05:36:14;;;;;;;3.60;2.70;;;17.20;71.30;;;;;;4979928;28;20037;-78
2023/09/26 05:38:39;;;;;;;4.43;2.70;;;17.20;71.30;;;;;;4997156;28;20505;-78
2023/09/26 05:41:05;;;;;;;3.28;2.47;;;17.20;71.30;;;;;;5012360;28;20443;-78
2023/09/26 05:43:31;;;;;;;3.20;2.55;;;17.20;71.90;;;;;;4995652;28;20091;-78
2023/09/26 05:45:57;;;;;;;3.67;2.72;;;17.10;71.30;;;;;;5013401;28;20041;-78
2023/09/26 05:48:23;;;;;;;4.05;2.90;;;17.20;71.30;;;;;;5013893;28;20088;-78
2023/09/26 05:50:56;;;;;;;3.58;2.67;;;17.20;71.40;;;;;;4996104;28;20383;-78
2023/09/26 05:53:22;;;;;;;4.28;2.90;;;17.20;71.40;;;;;;5013876;28;20053;-78
2023/09/26 05:55:51;;;;;;;4.40;2.83;;;17.10;71.30;;;;;;4979197;28;20080;-78
2023/09/26 05:58:18;;;;;;;3.75;2.50;;;17.10;71.40;;;;;;5013472;28;20029;-78
2023/09/26 06:00:46;;;;;;;4.10;3.03;;;17.10;71.40;;;;;;5012481;28;20030;-78
2023/09/26 06:03:14;;;;;;;3.55;2.85;;;17.10;71.40;;;;;;4992912;28;20142;-78
2023/09/26 06:05:44;;;;;;;3.70;2.72;;;17.10;71.50;;;;;;5009101;28;20479;-78
2023/09/26 06:08:09;;;;;;;4.50;2.90;;;17.10;71.50;;;;;;4992562;28;20117;-78
2023/09/26 06:10:35;;;;;;;3.72;2.70;;;17.10;71.50;;;;;;4994187;28;20114;-78
2023/09/26 06:13:01;;;;;;;3.92;3.08;;;17.00;71.50;;;;;;4993640;28;20042;-78
2023/09/26 06:15:27;;;;;;;3.83;2.90;;;17.10;71.60;;;;;;5009076;28;20062;-78
2023/09/26 06:17:59;;;;;;;3.28;2.70;;;17.00;71.50;;;;;;4994238;28;20054;-78
2023/09/26 06:20:29;;;;;;;3.88;2.88;;;17.10;71.60;;;;;;5008963;28;20030;-78
2023/09/26 06:22:56;;;;;;;3.92;2.92;;;17.10;71.60;;;;;;4994239;28;20035;-78
2023/09/26 06:25:25;;;;;;;3.85;2.90;;;17.00;71.60;;;;;;4994016;28;20094;-78
2023/09/26 06:27:51;;;;;;;3.85;2.42;;;17.00;71.50;;;;;;4992577;28;20041;-78
2023/09/26 06:30:17;;;;;;;3.97;2.78;;;17.00;71.50;;;;;;4994479;28;20030;-78
2023/09/26 06:32:43;;;;;;;3.97;2.92;;;17.00;71.50;;;;;;4993825;28;20032;-78
2023/09/26 06:35:10;;;;;;;4.40;2.80;;;17.10;71.60;;;;;;4976336;28;20042;-78
2023/09/26 06:37:36;;;;;;;3.95;3.15;;;17.00;71.70;;;;;;5008664;28;20479;-78
2023/09/26 06:40:04;;;;;;;3.78;2.90;;;17.00;71.60;;;;;;4960368;28;20101;-78
2023/09/26 06:42:30;;;;;;;4.53;3.28;;;17.00;72.30;;;;;;4993673;28;20097;-78
2023/09/26 06:44:57;;;;;;;3.88;2.92;;;17.00;71.70;;;;;;4994005;28;20122;-78
2023/09/26 06:47:24;;;;;;;4.50;3.28;;;17.00;72.30;;;;;;5009725;28;20038;-78
2023/09/26 06:49:50;;;;;;;4.20;2.95;;;17.00;71.70;;;;;;4992892;28;20054;-78
2023/09/26 06:52:15;;;;;;;3.53;2.72;;;17.00;71.70;;;;;;5008519;28;20062;-78
2023/09/26 06:54:41;;;;;;;3.53;2.85;;;17.00;71.70;;;;;;4992722;28;20040;-78
2023/09/26 06:57:09;;;;;;;4.13;2.95;;;17.00;71.70;;;;;;4976268;28;20471;-78
2023/09/26 06:59:36;;;;;;;4.07;2.97;;;17.00;71.80;;;;;;4992346;28;20089;-78
2023/09/26 07:02:02;;;;;;;3.95;3.05;;;17.00;71.70;;;;;;4992157;28;20038;-78
2023/09/26 07:04:28;;;;;;;4.47;3.03;;;17.00;71.80;;;;;;4992891;28;20073;-78
2023/09/26 07:06:53;;;;;;;4.13;3.00;;;17.00;71.80;;;;;;4977920;28;20030;-78
2023/09/26 07:09:20;;;;;;;4.13;3.00;;;17.00;71.80;;;;;;4996055;28;20034;-78
2023/09/26 07:11:49;;;;;;;3.92;3.05;;;17.00;71.80;;;;;;4997586;28;20042;-78
2023/09/26 07:14:15;;;;;;;4.07;3.05;;;17.00;71.90;;;;;;5012200;28;20027;-78
2023/09/26 07:16:41;;;;;;;4.68;3.20;;;17.00;71.90;;;;;;4995994;28;20038;-78
2023/09/26 07:19:07;;;;;;;3.33;2.70;;;17.00;71.90;;;;;;4979548;28;20050;-78
2023/09/26 07:21:32;;;;;;;4.82;3.03;;;17.00;71.90;;;;;;5012228;28;20105;-79
2023/09/26 07:23:59;;;;;;;3.97;2.97;;;17.00;71.90;;;;;;4979437;28;20082;-79
2023/09/26 07:26:26;;;;;;;3.90;2.70;;;17.00;71.90;;;;;;4996751;28;20041;-78
2023/09/26 07:28:52;;;;;;;3.80;2.90;;;17.00;71.90;;;;;;5011981;28;20168;-78
2023/09/26 07:31:18;;;;;;;3.47;2.90;;;17.00;71.90;;;;;;4979322;28;20037;-78
2023/09/26 07:33:45;;;;;;;4.00;3.20;;;17.00;71.90;;;;;;4979065;28;20118;-78
2023/09/26 07:36:11;;;;;;;3.88;3.15;;;17.00;71.90;;;;;;4996185;28;20038;-79
2023/09/26 07:38:37;;;;;;;4.68;3.30;;;17.10;71.90;;;;;;4996270;28;20022;-78
2023/09/26 07:41:03;;;;;;;4.07;2.80;;;17.10;72.00;;;;;;4995426;28;20052;-78
2023/09/26 07:43:33;;;;;;;3.78;2.88;;;17.10;71.90;;;;;;4995295;28;20032;-79
2023/09/26 07:46:12;;;;;;;4.35;3.03;;;17.10;71.90;;;;;;4995426;28;20038;-78
2023/09/26 07:48:38;;;;;;;4.35;3.05;;;17.10;72.00;;;;;;4995054;28;20030;-78
2023/09/26 07:51:06;;;;;;;4.25;3.13;;;17.10;71.90;;;;;;5011500;28;20051;-78
2023/09/26 07:53:32;;;;;;;4.38;2.70;;;17.10;71.90;;;;;;4995072;28;20031;-78
2023/09/26 07:55:58;;;;;;;3.63;2.80;;;17.10;71.90;;;;;;5011213;28;20038;-78
2023/09/26 07:58:24;;;;;;;3.85;2.75;;;17.20;72.00;;;;;;5011545;28;20121;-78
2023/09/26 08:00:50;;;;;;;4.10;3.17;;;17.20;72.00;;;;;;4995907;28;20113;-78
2023/09/26 08:03:16;;;;;;;4.22;2.90;;;17.20;72.00;;;;;;4962310;28;20406;-78
2023/09/26 08:05:42;;;;;;;3.25;2.75;;;17.20;72.00;;;;;;5010994;28;20507;-78
2023/09/26 08:08:07;;;;;;;4.28;3.08;;;17.20;72.00;;;;;;4995589;28;20038;-79
2023/09/26 08:10:38;;;;;;;4.18;3.00;;;17.20;72.00;;;;;;4978554;28;20120;-78
2023/09/26 08:13:05;;;;;;;4.03;2.88;;;17.30;72.00;;;;;;5010963;28;20045;-78
2023/09/26 08:15:31;;;;;;;3.88;2.75;;;17.30;72.00;;;;;;4978419;28;20034;-78
2023/09/26 08:17:57;;;;;;;3.50;2.80;;;17.30;71.90;;;;;;4994705;28;20434;-78
2023/09/26 08:20:24;;;;;;;3.97;2.90;;;17.30;71.90;;;;;;4994829;28;20034;-79
2023/09/26 08:22:50;;;;;;;4.85;2.95;;;17.40;72.00;;;;;;4994512;28;20069;-78
2023/09/26 08:25:15;;;;;;;3.85;2.78;;;17.30;71.90;;;;;;5010727;28;20046;-78
2023/09/26 08:27:41;;;;;;;3.20;2.47;;;17.40;71.90;;;;;;4994335;28;20026;-78
2023/09/26 08:30:08;;;;;;;3.60;2.53;;;17.40;71.90;;;;;;5010401;28;20030;-78
2023/09/26 08:32:34;;;;;;;4.18;3.05;;;17.50;71.90;;;;;;4994238;28;20027;-77
2023/09/26 08:34:59;;;;;;;4.18;2.53;;;17.50;71.90;;;;;;4994563;28;20109;-78
2023/09/26 08:37:25;;;;;;;3.50;2.72;;;17.50;71.80;;;;;;4994875;28;20460;-78
2023/09/26 08:39:51;;;;;;;2.92;2.38;;;17.50;71.80;;;;;;5010281;28;20061;-78
2023/09/26 08:42:27;;;;;;;3.70;2.88;;;17.50;71.70;;;;;;4961911;28;20092;-78
2023/09/26 08:44:57;;;;;;;2.75;2.28;;;17.60;71.80;;;;;;4995332;28;20039;-78
2023/09/26 08:47:24;;;;;;;3.17;2.58;;;17.60;71.70;;;;;;5010621;28;20062;-78
2023/09/26 08:49:54;;;;;;;3.67;2.53;;;17.60;71.60;;;;;;4977953;28;20066;-78
2023/09/26 08:52:26;;;;;;;3.78;2.58;;;17.70;71.70;;;;;;5010521;28;20379;-78
2023/09/26 08:54:52;;;;;;;3.83;2.40;;;17.70;71.60;;;;;;4995037;28;20038;-78
2023/09/26 08:57:22;;;;;;;3.03;2.40;;;17.70;71.50;;;;;;4993830;28;20061;-78
2023/09/26 08:59:48;;;;;;;3.17;2.50;;;17.80;71.60;;;;;;4994169;28;20160;-78
2023/09/26 09:02:14;;;;;;;3.45;2.60;;;17.80;71.50;;;;;;4993781;28;20037;-78
2023/09/26 09:04:45;;;;;;;2.83;2.45;;;17.80;71.50;;;;;;5012950;28;20135;-78
2023/09/26 09:07:11;;;;;;;3.70;2.60;;;17.90;71.50;;;;;;5013172;28;20058;-78
2023/09/26 09:10:00;;;;;;;4.03;2.85;;;17.90;71.40;;;;;;5014812;28;20072;-78
2023/09/26 09:12:26;;;;;;;3.42;2.58;;;17.90;71.40;;;;;;5014272;28;20041;-78
2023/09/26 09:14:52;;;;;;;2.90;2.20;;;18.00;71.30;;;;;;4996722;28;20037;-77
2023/09/26 09:17:18;;;;;;;3.78;2.53;;;18.00;71.30;;;;;;5013397;28;20053;-76
2023/09/26 09:19:52;;;;;;;3.67;2.58;;;18.00;71.20;;;;;;4996959;28;20065;-78
2023/09/26 09:22:20;;;;;;;3.55;2.78;;;18.10;71.30;;;;;;4996940;28;20022;-78
2023/09/26 09:24:54;;;;;;;3.00;2.40;;;18.10;71.20;;;;;;5013129;28;20482;-78
2023/09/26 09:27:29;;;;;;;2.60;2.15;;;18.20;71.20;;;;;;4996780;28;20030;-78
2023/09/26 09:30:04;;;;;;;3.58;2.50;;;18.20;71.20;;;;;;5012447;28;20038;-79
2023/09/26 09:32:30;;;;;;;3.47;2.50;;;18.20;71.10;;;;;;5014402;28;20026;-78
2023/09/26 09:34:56;;;;;;;3.17;2.30;;;18.30;71.10;;;;;;4996278;28;20104;-79
2023/09/26 09:37:22;;;;;;;3.22;2.40;;;18.30;71.10;;;;;;5012636;28;20026;-79
2023/09/26 09:39:48;;;;;;;3.25;2.13;;;18.40;71.10;;;;;;4965006;28;20479;-79
2023/09/26 09:42:13;;;;;;;2.75;2.30;;;18.40;71.00;;;;;;4996453;28;20044;-78
2023/09/26 09:44:39;;;;;;;3.45;2.42;;;18.50;71.00;;;;;;4996267;28;20457;-78
2023/09/26 09:47:08;;;;;;;2.75;2.10;;;18.50;71.00;;;;;;4979983;28;20029;-78
2023/09/26 09:49:42;;;;;;;2.92;2.17;;;18.50;70.90;;;;;;5012521;28;20117;-78
2023/09/26 09:52:10;;;;;;;3.53;2.38;;;18.60;70.90;;;;;;4996338;28;20061;-78
2023/09/26 09:54:39;;;;;;;3.45;2.22;;;18.70;70.90;;;;;;5013277;28;20042;-78
2023/09/26 09:57:11;;;;;;;2.90;2.03;;;18.70;70.70;;;;;;4996198;28;20116;-78
2023/09/26 09:59:38;;;;;;;2.85;2.22;;;18.80;70.80;;;;;;4996228;28;20030;-78
2023/09/26 10:02:04;;;;;;;3.22;2.47;;;18.80;70.70;;;;;;5013517;28;20041;-78
2023/09/26 10:04:32;;;;;;;3.47;2.33;;;18.90;70.70;;;;;;4980175;28;20050;-78
2023/09/26 10:07:01;;;;;;;2.75;2.10;;;19.00;70.70;;;;;;4996154;28;20128;-78
2023/09/26 10:09:29;;;;;;;2.67;2.05;;;19.00;70.60;;;;;;4963878;28;20057;-78
2023/09/26 10:11:56;;;;;;;2.72;1.95;;;19.10;70.50;;;;;;5013479;28;20109;-78
2023/09/26 10:14:23;;;;;;;2.95;2.30;;;19.20;70.40;;;;;;4995833;28;20521;-78
2023/09/26 10:16:49;;;;;;;3.17;2.20;;;19.20;70.40;;;;;;4979475;28;20030;-78
2023/09/26 10:19:16;;;;;;;3.50;2.50;;;19.30;70.40;;;;;;5012321;28;20030;-79
2023/09/26 10:21:42;;;;;;;3.50;2.28;;;19.40;70.30;;;;;;5013243;28;20041;-79
2023/09/26 10:24:08;;;;;;;3.00;2.20;;;19.40;70.20;;;;;;4979734;28;20111;-79
2023/09/26 10:26:37;;;;;;;3.13;2.35;;;19.50;70.20;;;;;;5012977;28;20027;-79
2023/09/26 10:29:25;;;;;;;2.78;2.22;;;19.60;70.20;;;;;;4979674;28;20038;-78
2023/09/26 10:31:59;;;;;;;3.20;2.13;;;19.60;70.20;;;;;;4996248;28;20555;-78
2023/09/26 10:34:31;;;;;;;2.92;2.22;;;19.70;70.10;;;;;;5013739;28;20044;-78
2023/09/26 10:36:59;;;;;;;3.35;2.40;;;19.80;70.10;;;;;;4995597;28;20390;-78
2023/09/26 10:39:37;;;;;;;3.20;2.20;;;19.80;70.10;;;;;;5012454;28;20060;-78
2023/09/26 10:42:10;;;;;;;3.10;2.20;;;19.90;70.20;;;;;;5017164;28;20112;-78
2023/09/26 10:44:37;;;;;;;4.13;2.42;;;19.90;70.20;;;;;;5017230;28;20034;-78
2023/09/26 10:47:04;;;;;;;2.80;2.03;;;20.00;70.40;;;;;;4999588;28;20044;-78
2023/09/26 10:49:34;;;;;;;4.53;2.50;;;20.10;70.40;;;;;;5000075;28;20477;-78
2023/09/26 10:52:03;;;;;;;2.45;2.10;;;20.10;70.50;;;;;;4984120;28;20057;-78
2023/09/26 10:54:32;;;;;;;3.53;2.28;;;20.20;70.50;;;;;;5000196;28;20029;-78
2023/09/26 10:56:58;;;;;;;2.85;2.38;;;20.30;70.60;;;;;;4999802;28;20030;-78
2023/09/26 10:59:28;;;;;;;3.78;2.53;;;20.30;70.70;;;;;;4983258;28;20030;-78
2023/09/26 11:01:58;;;;;;;4.25;2.25;;;20.30;70.80;;;;;;4999716;28;20030;-78
2023/09/26 11:04:30;;;;;;;2.67;1.98;;;20.40;71.50;;;;;;4998939;28;20049;-78
2023/09/26 11:07:00;;;;;;;2.75;2.25;;;20.40;70.90;;;;;;5016637;28;20038;-78
2023/09/26 11:09:27;;;;;;;2.95;2.30;;;20.50;70.90;;;;;;4999671;28;20058;-78
2023/09/26 11:11:56;;;;;;;3.05;2.10;;;20.50;71.00;;;;;;5016437;28;20479;-78
2023/09/26 11:14:26;;;;;;;3.10;2.20;;;20.60;71.10;;;;;;5016388;28;20040;-78
2023/09/26 11:16:52;;;;;;;3.13;2.15;;;20.70;71.20;;;;;;5015623;28;20088;-78
2023/09/26 11:19:21;;;;;;;2.97;2.17;;;20.70;71.20;;;;;;4967502;28;20037;-77
2023/09/26 11:21:48;;;;;;;2.70;2.08;;;20.80;71.30;;;;;;5016801;28;20034;-77
2023/09/26 11:24:30;;;;;;;2.97;2.30;;;20.80;71.40;;;;;;5016171;28;20064;-78
2023/09/26 11:27:04;;;;;;;3.15;2.20;;;20.80;71.40;;;;;;5015635;28;20030;-78
2023/09/26 11:29:32;;;;;;;2.33;2.00;;;20.90;71.50;;;;;;5016671;28;20030;-78
2023/09/26 11:31:58;;;;;;;2.95;2.10;;;21.00;71.40;;;;;;4998818;28;20489;-78
2023/09/26 11:34:25;;;;;;;1.92;1.67;;;21.00;71.40;;;;;;4982414;28;20117;-77
2023/09/26 11:36:51;;;;;;;3.83;2.40;;;21.00;71.40;;;;;;4998971;28;20034;-78
2023/09/26 11:39:22;;;;;;;2.60;1.92;;;21.10;71.40;;;;;;5016455;28;20466;-78
2023/09/26 11:42:05;;;;;;;3.20;2.05;;;21.10;71.50;;;;;;5016426;28;20467;-78
2023/09/26 11:44:31;;;;;;;3.15;2.42;;;21.10;71.60;;;;;;4998261;28;20040;-78
2023/09/26 11:46:57;;;;;;;3.20;2.10;;;21.20;71.40;;;;;;5014501;28;20396;-78
2023/09/26 11:49:24;;;;;;;3.60;2.35;;;21.20;71.40;;;;;;5015517;28;20030;-78
2023/09/26 11:51:51;;;;;;;2.15;1.77;;;21.30;71.50;;;;;;4981706;28;20030;-78
2023/09/26 11:54:18;;;;;;;2.75;1.98;;;21.30;71.50;;;;;;5016398;28;20026;-78
2023/09/26 11:56:44;;;;;;;2.65;1.95;;;21.30;71.40;;;;;;4998551;28;20426;-78
2023/09/26 11:59:11;;;;;;;2.90;1.77;;;21.40;71.50;;;;;;4998506;28;20026;-78
2023/09/26 12:01:41;;;;;;;2.53;1.98;;;21.40;71.40;;;;;;5015317;28;20030;-78
2023/09/26 12:04:10;;;;;;;2.67;2.00;;;21.50;71.40;;;;;;4998128;28;20057;-78
2023/09/26 12:06:36;;;;;;;2.95;2.00;;;21.50;71.40;;;;;;5015360;28;20030;-78
2023/09/26 12:09:05;;;;;;;2.38;1.95;;;21.50;71.90;;;;;;4981736;28;20034;-78
2023/09/26 12:11:31;;;;;;;2.72;1.70;;;21.60;71.20;;;;;;4997917;28;20030;-78
2023/09/26 12:13:57;;;;;;;2.80;2.03;;;21.60;71.10;;;;;;4981457;28;20029;-78
2023/09/26 12:16:23;;;;;;;2.40;1.65;;;21.70;71.10;;;;;;4997889;28;20038;-77
2023/09/26 12:18:49;;;;;;;3.08;1.73;;;21.70;71.00;;;;;;4997874;28;20025;-78
2023/09/26 12:21:16;;;;;;;1.98;1.65;;;21.70;71.00;;;;;;5014195;28;20037;-78
2023/09/26 12:23:41;;;;;;;2.80;2.03;;;21.80;71.10;;;;;;4998209;28;20092;-78
2023/09/26 12:26:07;;;;;;;2.22;1.73;;;21.80;71.10;;;;;;4981327;28;20030;-78
2023/09/26 12:28:35;;;;;;;2.30;2.00;;;21.90;71.10;;;;;;5014250;28;20437;-78
2023/09/26 12:31:00;;;;;;;2.15;1.80;;;21.90;71.00;;;;;;5013844;28;20116;-78
2023/09/26 12:33:26;;;;;;;2.25;1.85;;;21.90;70.90;;;;;;5013958;28;20109;-78
2023/09/26 12:35:52;;;;;;;2.33;1.83;;;21.90;70.80;;;;;;4997649;28;20034;-78
2023/09/26 12:38:18;;;;;;;2.45;1.65;;;22.00;70.80;;;;;;5015361;28;20160;-78
2023/09/26 12:40:43;;;;;;;1.80;1.50;;;22.00;70.70;;;;;;4981568;28;20030;-78
2023/09/26 12:43:09;;;;;;;2.65;1.77;;;22.10;70.50;;;;;;4997348;28;20026;-78
2023/09/26 12:45:35;;;;;;;2.42;1.70;;;22.10;70.50;;;;;;4981009;28;20172;-78
2023/09/26 12:48:01;;;;;;;2.85;1.88;;;22.20;70.40;;;;;;5013350;28;20222;-78